Time;durP1;ratioP1;P1;durP2;ratioP2;P2;SDS_P1;SDS_P2;PMS_P1;PMS_P2;Temp;Humidity;BMP_temperature;BMP_pressure;BME280_temperature;BME280_humidity;BME280_pressure;Samples;Min_cycle;Max_cycle;Signal;HPM_P1;HPM_P2
2022/01/12 00:01:55;;;;;;;185.57;49.42;;;5.30;99.90;;;;;;5074242;28;20036;-83
2022/01/12 00:04:21;;;;;;;259.70;57.03;;;5.30;99.90;;;;;;5056960;28;20479;-83
2022/01/12 00:06:46;;;;;;;188.95;50.60;;;5.40;99.90;;;;;;5074332;28;20071;-83
2022/01/12 00:09:13;;;;;;;254.85;58.90;;;5.20;99.90;;;;;;5074370;28;20142;-83
2022/01/12 00:11:39;;;;;;;201.63;52.28;;;5.30;99.90;;;;;;5091555;28;20048;-83
2022/01/12 00:14:05;;;;;;;343.25;67.55;;;5.20;99.90;;;;;;5057160;28;20461;-83
2022/01/12 00:16:32;;;;;;;197.98;49.75;;;5.20;99.90;;;;;;5074002;28;20456;-83
2022/01/12 00:18:58;;;;;;;145.15;47.28;;;5.30;99.90;;;;;;5074051;28;20377;-83
2022/01/12 00:21:24;;;;;;;337.95;63.78;;;5.40;99.90;;;;;;5074114;28;20051;-83
2022/01/12 00:23:50;;;;;;;363.63;64.32;;;5.60;99.90;;;;;;5073976;28;20056;-83
2022/01/12 00:34:25;;;;;;;333.92;61.85;;;5.40;99.90;;;;;;5073813;28;20066;-83
2022/01/12 00:36:51;;;;;;;389.52;65.35;;;5.40;99.90;;;;;;5073929;28;20464;-83
2022/01/12 00:39:16;;;;;;;398.05;68.60;;;5.40;99.90;;;;;;5073410;28;20131;-83
2022/01/12 00:41:42;;;;;;;163.95;47.92;;;5.40;99.90;;;;;;5057153;28;20059;-84
2022/01/12 00:44:10;;;;;;;263.60;55.10;;;5.40;99.90;;;;;;5073693;28;20059;-83
2022/01/12 00:46:38;;;;;;;386.55;65.20;;;5.50;99.90;;;;;;5073312;28;20053;-84
2022/01/12 00:49:04;;;;;;;377.13;64.63;;;5.60;99.90;;;;;;5056321;28;20135;-83
2022/01/12 00:51:32;;;;;;;471.75;73.10;;;5.60;99.90;;;;;;5057117;28;20105;-83
2022/01/12 00:53:59;;;;;;;374.73;64.35;;;5.60;99.90;;;;;;5073434;28;20095;-83
2022/01/12 00:56:26;;;;;;;375.25;65.15;;;5.50;99.90;;;;;;5056905;28;20063;-83
2022/01/12 00:58:52;;;;;;;416.63;68.32;;;5.40;99.90;;;;;;5073410;28;20178;-83
2022/01/12 01:01:19;;;;;;;464.73;72.30;;;5.30;99.90;;;;;;5073400;28;20083;-83
2022/01/12 01:03:46;;;;;;;351.80;63.65;;;5.30;99.90;;;;;;5073015;28;20055;-83
2022/01/12 01:06:12;;;;;;;476.55;71.38;;;5.20;99.90;;;;;;5039961;28;20054;-83
2022/01/12 01:08:38;;;;;;;495.55;75.55;;;5.20;99.90;;;;;;5073242;28;20048;-83
2022/01/12 01:11:04;;;;;;;487.92;74.60;;;5.30;99.90;;;;;;5073149;28;20476;-83
2022/01/12 01:13:57;;;;;;;504.05;73.70;;;5.30;99.90;;;;;;5073203;28;20094;-83
2022/01/12 01:16:25;;;;;;;489.05;74.65;;;5.30;99.90;;;;;;5059201;28;20442;-84
2022/01/12 01:27:03;;;;;;;588.00;80.32;;;5.20;99.90;;;;;;5073014;28;20063;-83
2022/01/12 01:29:29;;;;;;;444.95;68.90;;;5.10;99.90;;;;;;5040129;28;20048;-83
2022/01/12 01:31:55;;;;;;;554.25;77.38;;;5.20;99.90;;;;;;5072301;28;20486;-83
2022/01/12 01:34:20;;;;;;;388.60;64.32;;;5.30;99.90;;;;;;5055933;28;20472;-83
2022/01/12 01:36:52;;;;;;;476.42;71.72;;;5.40;99.90;;;;;;5056270;28;20190;-84
2022/01/12 01:39:20;;;;;;;559.72;77.40;;;5.40;99.90;;;;;;5072885;28;20127;-84
2022/01/12 01:42:05;;;;;;;566.38;77.65;;;5.50;99.90;;;;;;5089787;28;20056;-84
2022/01/12 01:55:18;;;;;;;732.70;89.80;;;5.50;99.90;;;;;;5072729;28;20052;-84
2022/01/12 01:57:43;;;;;;;466.02;67.78;;;5.40;99.90;;;;;;5072690;28;20369;-84
2022/01/12 02:00:16;;;;;;;713.08;87.55;;;5.50;99.90;;;;;;5072560;28;20056;-84
2022/01/12 02:02:44;;;;;;;755.85;88.72;;;5.50;99.90;;;;;;5072317;28;20080;-84
2022/01/12 02:05:11;;;;;;;691.70;85.53;;;5.50;99.90;;;;;;5072680;28;20037;-84
2022/01/12 02:07:37;;;;;;;780.67;90.55;;;5.50;99.90;;;;;;5072513;28;20048;-84
2022/01/12 02:10:04;;;;;;;747.33;89.45;;;5.50;99.90;;;;;;5055732;28;20059;-83
2022/01/12 02:12:30;;;;;;;680.80;85.22;;;5.50;99.90;;;;;;5072168;28;20048;-84
2022/01/12 02:14:57;;;;;;;528.00;73.70;;;5.50;99.90;;;;;;5072400;28;20047;-84
2022/01/12 02:17:30;;;;;;;441.98;66.05;;;5.60;99.90;;;;;;5072140;28;20076;-84
2022/01/12 02:20:30;;;;;;;502.70;70.50;;;5.70;99.90;;;;;;5072431;28;20044;-84
2022/01/12 02:39:50;;;;;;;642.38;79.40;;;5.70;99.90;;;;;;5072620;28;20088;-84
2022/01/12 02:42:18;;;;;;;207.10;46.65;;;5.80;99.90;;;;;;5071851;28;20058;-84
2022/01/12 02:55:41;;;;;;;436.05;60.10;;;6.10;99.90;;;;;;5062298;28;20095;-84
2022/01/12 02:58:06;;;;;;;193.05;43.65;;;6.10;99.90;;;;;;5075798;28;20084;-84
2022/01/12 03:00:52;;;;;;;135.68;39.20;;;6.00;99.90;;;;;;5075629;28;20048;-84
2022/01/12 03:03:22;;;;;;;192.32;40.17;;;6.00;99.90;;;;;;5076008;28;20421;-84
2022/01/12 03:05:56;;;;;;;493.13;63.15;;;6.10;99.90;;;;;;5075684;28;20048;-84
2022/01/12 03:08:24;;;;;;;441.98;57.92;;;6.20;99.90;;;;;;5058783;28;20103;-84
2022/01/12 03:10:50;;;;;;;467.90;59.58;;;6.30;99.90;;;;;;5075736;28;20476;-83
2022/01/12 03:13:16;;;;;;;279.33;46.53;;;6.30;99.90;;;;;;5076035;28;20131;-83
2022/01/12 03:15:42;;;;;;;321.15;50.10;;;6.30;99.90;;;;;;5075371;28;20511;-84
2022/01/12 03:18:08;;;;;;;264.85;45.63;;;6.30;99.90;;;;;;5075418;28;20561;-84
2022/01/12 03:20:34;;;;;;;203.73;41.88;;;6.20;99.90;;;;;;5075254;28;20135;-84
2022/01/12 03:23:00;;;;;;;187.55;40.00;;;6.30;99.90;;;;;;5075589;28;20087;-84
2022/01/12 03:25:26;;;;;;;121.90;35.97;;;6.30;99.90;;;;;;5075015;28;20530;-84
2022/01/12 03:27:58;;;;;;;111.03;34.08;;;6.40;99.90;;;;;;5109163;28;20054;-84
2022/01/12 03:30:24;;;;;;;350.70;47.97;;;6.30;99.90;;;;;;5075178;28;20510;-84
2022/01/12 03:33:04;;;;;;;273.55;42.42;;;6.30;99.90;;;;;;5075064;28;20045;-84
2022/01/12 03:35:48;;;;;;;683.38;65.63;;;6.30;99.90;;;;;;5074651;28;20053;-84
2022/01/12 03:38:20;;;;;;;828.13;74.55;;;6.20;99.90;;;;;;5075072;28;20520;-84
2022/01/12 03:40:46;;;;;;;860.25;73.45;;;6.10;99.90;;;;;;5075359;28;20048;-84
2022/01/12 03:43:12;;;;;;;474.35;52.33;;;5.90;99.90;;;;;;5058197;28;20059;-84
2022/01/12 03:45:38;;;;;;;968.65;77.05;;;5.80;99.90;;;;;;5074596;28;20045;-84
2022/01/12 03:48:04;;;;;;;223.20;38.72;;;5.90;99.90;;;;;;5074392;28;20053;-83
2022/01/12 03:50:30;;;;;;;205.60;38.15;;;5.80;99.90;;;;;;5074873;28;20059;-84
2022/01/12 03:52:55;;;;;;;153.73;35.53;;;5.80;99.90;;;;;;5074872;28;20048;-83
2022/01/12 03:55:21;;;;;;;878.17;75.13;;;5.80;99.90;;;;;;5057265;28;20084;-84
2022/01/12 03:57:47;;;;;;;793.33;67.38;;;5.90;99.90;;;;;;5074518;28;20040;-84
2022/01/12 04:00:13;;;;;;;735.78;65.90;;;5.60;99.90;;;;;;5058088;28;20051;-84
2022/01/12 04:02:40;;;;;;;636.58;61.10;;;5.50;99.90;;;;;;5057895;28;20056;-84
2022/01/12 04:10:15;;;;;;;304.52;40.10;;;5.60;99.90;;;;;;5074385;28;20139;-83
2022/01/12 04:12:41;;;;;;;548.55;55.78;;;5.60;99.90;;;;;;5074257;28;20127;-83
2022/01/12 04:15:07;;;;;;;625.10;55.58;;;5.70;99.90;;;;;;5057376;28;20053;-83
2022/01/12 04:17:33;;;;;;;599.53;55.83;;;5.60;99.90;;;;;;5074191;28;20048;-84
2022/01/12 04:20:01;;;;;;;606.38;56.53;;;5.60;99.90;;;;;;5074179;28;20055;-83
2022/01/12 04:25:11;;;;;;;69.53;26.13;;;5.40;99.90;;;;;;5074075;28;20412;-83
2022/01/12 04:27:37;;;;;;;556.63;52.47;;;5.50;99.90;;;;;;5073946;28;20049;-84
2022/01/12 04:30:04;;;;;;;554.10;50.95;;;5.60;99.90;;;;;;5057354;28;20056;-83
2022/01/12 04:32:30;;;;;;;376.27;41.90;;;5.60;99.90;;;;;;5057048;28;20048;-83
2022/01/12 04:34:56;;;;;;;233.75;32.35;;;5.50;99.90;;;;;;5056875;28;20105;-83
2022/01/12 04:37:21;;;;;;;270.35;36.88;;;5.40;99.90;;;;;;5074447;28;20089;-83
2022/01/12 04:39:47;;;;;;;88.65;25.05;;;5.30;99.90;;;;;;5107682;28;20104;-84
2022/01/12 04:42:13;;;;;;;70.38;24.05;;;5.10;99.90;;;;;;5073886;28;20131;-83
2022/01/12 04:44:44;;;;;;;116.47;27.83;;;5.10;99.90;;;;;;5056931;28;20468;-84
2022/01/12 04:47:17;;;;;;;100.75;23.98;;;5.20;99.90;;;;;;5073793;28;20373;-83
2022/01/12 04:52:11;;;;;;;61.55;20.52;;;5.20;99.90;;;;;;5073517;28;20049;-83
2022/01/12 04:54:36;;;;;;;63.13;20.35;;;5.20;99.90;;;;;;5107776;28;20040;-83
2022/01/12 04:57:02;;;;;;;44.45;17.58;;;5.10;99.90;;;;;;5056793;28;20045;-83
2022/01/12 04:59:29;;;;;;;58.25;18.38;;;5.00;99.90;;;;;;5056844;28;20052;-83
2022/01/12 05:01:59;;;;;;;39.55;16.17;;;4.90;99.90;;;;;;5073197;28;20055;-83
2022/01/12 05:07:31;;;;;;;192.07;26.70;;;4.80;99.90;;;;;;5073183;28;20055;-83
2022/01/12 05:12:51;;;;;;;104.88;21.98;;;4.90;99.90;;;;;;5073135;28;20051;-83
2022/01/12 05:15:25;;;;;;;58.03;18.65;;;5.00;99.90;;;;;;5073492;28;20048;-83
2022/01/12 05:17:51;;;;;;;114.65;23.15;;;4.90;99.90;;;;;;5073139;28;20044;-83
2022/01/12 05:20:17;;;;;;;178.23;26.88;;;5.00;99.90;;;;;;5096736;28;20048;-82
2022/01/12 05:22:43;;;;;;;280.13;31.80;;;4.90;99.90;;;;;;5091417;28;20058;-82
2022/01/12 05:25:08;;;;;;;123.38;23.30;;;4.80;99.90;;;;;;5093299;28;20040;-83
2022/01/12 05:27:34;;;;;;;89.78;19.67;;;4.70;99.90;;;;;;5093132;28;20044;-83
2022/01/12 05:30:00;;;;;;;114.68;22.63;;;4.50;99.90;;;;;;5076392;28;20052;-83
2022/01/12 05:32:26;;;;;;;56.58;18.05;;;4.50;99.90;;;;;;5093234;28;20050;-83
2022/01/12 05:34:58;;;;;;;248.32;29.40;;;4.50;99.90;;;;;;5092677;28;20134;-83
2022/01/12 05:37:24;;;;;;;197.68;27.25;;;4.50;99.90;;;;;;5093043;28;20055;-83
2022/01/12 05:39:50;;;;;;;43.42;16.90;;;4.40;99.90;;;;;;5093753;28;20055;-83
2022/01/12 05:42:15;;;;;;;32.85;15.95;;;4.40;99.90;;;;;;5093689;28;20490;-83
2022/01/12 05:44:42;;;;;;;95.90;20.92;;;4.30;99.90;;;;;;5093050;28;20047;-83
2022/01/12 05:47:18;;;;;;;128.52;21.80;;;4.30;99.90;;;;;;5076232;28;20055;-83
2022/01/12 05:49:45;;;;;;;33.17;15.80;;;4.20;99.90;;;;;;5093032;28;20048;-83
2022/01/12 05:52:11;;;;;;;41.50;15.65;;;4.30;99.90;;;;;;5093059;28;20055;-83
2022/01/12 05:54:38;;;;;;;181.13;23.85;;;4.40;99.90;;;;;;5092751;28;20052;-83
2022/01/12 05:57:04;;;;;;;140.40;21.27;;;4.40;99.90;;;;;;5092886;28;20063;-83
2022/01/12 05:59:29;;;;;;;94.57;18.92;;;4.40;99.90;;;;;;5092884;28;20383;-83
2022/01/12 06:01:55;;;;;;;148.52;22.77;;;4.20;99.90;;;;;;5076001;28;20055;-83
2022/01/12 06:04:21;;;;;;;227.23;29.88;;;4.20;99.90;;;;;;5092336;28;20093;-83
2022/01/12 06:06:46;;;;;;;33.42;15.07;;;3.90;99.90;;;;;;5092516;28;20044;-83
2022/01/12 06:09:12;;;;;;;37.67;16.27;;;3.90;99.90;;;;;;5092762;28;20066;-83
2022/01/12 06:11:38;;;;;;;35.35;15.48;;;3.90;99.90;;;;;;5059554;28;20144;-83
2022/01/12 06:14:03;;;;;;;34.50;15.50;;;4.10;99.90;;;;;;5076111;28;20113;-83
2022/01/12 06:16:29;;;;;;;32.45;15.48;;;4.20;99.90;;;;;;5076250;28;20083;-83
2022/01/12 06:18:56;;;;;;;29.92;13.82;;;4.30;99.90;;;;;;5080238;28;20055;-84
2022/01/12 06:21:23;;;;;;;41.55;14.45;;;4.40;99.90;;;;;;5096733;28;20051;-84
2022/01/12 06:23:49;;;;;;;83.68;17.42;;;4.40;99.90;;;;;;5096601;28;20058;-83
2022/01/12 06:26:15;;;;;;;188.73;23.13;;;4.40;99.90;;;;;;5096215;28;20036;-83
2022/01/12 06:28:52;;;;;;;187.40;25.45;;;4.50;99.90;;;;;;5096620;28;20385;-83
2022/01/12 06:31:23;;;;;;;85.00;25.58;;;4.30;99.90;;;;;;5064964;28;20069;-83
2022/01/12 06:33:49;;;;;;;231.80;33.30;;;4.20;99.90;;;;;;5079127;28;20055;-83
2022/01/12 06:36:17;;;;;;;112.28;23.63;;;4.30;99.90;;;;;;5080041;28;20036;-83
2022/01/12 06:38:43;;;;;;;26.83;12.90;;;4.20;99.90;;;;;;5096464;28;20143;-83
2022/01/12 06:41:10;;;;;;;40.83;15.93;;;4.30;99.90;;;;;;5096335;28;20056;-83
2022/01/12 06:43:36;;;;;;;25.55;12.50;;;4.40;99.90;;;;;;5096190;28;20434;-83
2022/01/12 06:46:04;;;;;;;166.05;21.38;;;4.50;99.90;;;;;;5062442;28;20039;-83
2022/01/12 06:48:31;;;;;;;121.00;17.40;;;4.50;99.90;;;;;;5078823;28;20157;-83
2022/01/12 06:50:57;;;;;;;66.32;15.50;;;4.40;99.90;;;;;;5096048;28;20056;-83
2022/01/12 06:53:22;;;;;;;32.88;13.05;;;4.40;99.90;;;;;;5062544;28;20056;-83
2022/01/12 06:55:48;;;;;;;37.50;14.85;;;4.40;99.90;;;;;;5096092;28;20131;-83
2022/01/12 06:58:14;;;;;;;21.88;11.43;;;4.40;99.90;;;;;;5079186;28;20134;-83
2022/01/12 07:00:40;;;;;;;142.30;20.27;;;4.40;99.90;;;;;;5079060;28;20051;-83
2022/01/12 07:03:05;;;;;;;155.15;25.60;;;4.50;99.90;;;;;;5095905;28;20044;-83
2022/01/12 07:05:31;;;;;;;110.53;21.65;;;4.40;99.90;;;;;;5078380;28;20044;-83
2022/01/12 07:07:57;;;;;;;209.73;29.40;;;4.30;99.90;;;;;;5095501;28;20082;-83
2022/01/12 07:10:24;;;;;;;130.20;22.73;;;4.30;99.90;;;;;;5062246;28;20056;-83
2022/01/12 07:12:50;;;;;;;154.90;25.52;;;4.10;99.90;;;;;;5078951;28;20506;-83
2022/01/12 07:15:15;;;;;;;38.40;15.63;;;4.10;99.90;;;;;;5062825;28;20052;-83
2022/01/12 07:17:42;;;;;;;64.05;19.83;;;4.00;99.90;;;;;;5095678;28;20044;-83
2022/01/12 07:20:08;;;;;;;36.35;14.57;;;3.90;99.90;;;;;;5095491;28;20509;-83
2022/01/12 07:22:34;;;;;;;26.15;12.65;;;3.90;99.90;;;;;;5095664;28;20040;-83
2022/01/12 07:24:59;;;;;;;31.90;13.75;;;4.00;99.90;;;;;;5095399;28;20600;-83
2022/01/12 07:27:25;;;;;;;24.60;12.02;;;4.10;99.90;;;;;;5078347;28;20134;-82
2022/01/12 07:29:51;;;;;;;129.07;16.23;;;4.20;99.90;;;;;;5094597;28;20130;-83
2022/01/12 07:32:16;;;;;;;176.55;21.45;;;4.20;99.90;;;;;;5078373;28;20055;-83
2022/01/12 07:34:42;;;;;;;129.38;18.13;;;4.10;99.90;;;;;;5094870;28;20052;-83
2022/01/12 07:37:07;;;;;;;84.32;17.10;;;3.80;99.90;;;;;;5078480;28;20056;-83
2022/01/12 07:39:33;;;;;;;155.40;25.10;;;3.60;99.90;;;;;;5078409;28;20082;-83
2022/01/12 07:41:59;;;;;;;194.00;24.40;;;3.50;99.90;;;;;;5096120;28;20040;-83
2022/01/12 07:44:24;;;;;;;63.85;16.23;;;3.30;99.90;;;;;;5095338;28;20497;-82
2022/01/12 07:46:50;;;;;;;29.95;13.80;;;3.20;99.90;;;;;;5094883;28;20054;-82
2022/01/12 07:49:16;;;;;;;32.65;12.13;;;3.40;99.90;;;;;;5077807;28;20109;-82
2022/01/12 07:51:42;;;;;;;27.55;13.40;;;3.60;99.90;;;;;;5095840;28;20087;-77
2022/01/12 07:54:07;;;;;;;30.08;11.52;;;3.70;99.90;;;;;;5129153;27;20124;-78
2022/01/12 07:56:33;;;;;;;20.50;11.48;;;3.90;99.90;;;;;;5094954;28;20052;-76
2022/01/12 07:58:59;;;;;;;36.47;12.50;;;3.90;99.90;;;;;;5094996;28;20172;-77
2022/01/12 08:01:25;;;;;;;19.25;9.95;;;4.00;99.90;;;;;;5094906;28;20044;-77
2022/01/12 08:03:50;;;;;;;35.67;11.02;;;4.10;99.90;;;;;;5077465;28;20083;-77
2022/01/12 08:06:16;;;;;;;42.50;12.60;;;4.10;99.90;;;;;;5077619;28;20441;-77
2022/01/12 08:08:42;;;;;;;64.25;14.30;;;4.20;99.90;;;;;;5095343;28;20127;-76
2022/01/12 08:11:08;;;;;;;42.22;12.18;;;4.10;99.90;;;;;;5094645;28;20510;-76
2022/01/12 08:13:33;;;;;;;95.53;18.40;;;4.00;99.90;;;;;;5094621;28;20063;-74
2022/01/12 08:15:59;;;;;;;20.25;11.13;;;3.90;99.90;;;;;;5094525;28;20074;-77
2022/01/12 08:18:25;;;;;;;107.10;18.85;;;3.70;99.90;;;;;;5094372;28;20059;-78
2022/01/12 08:20:51;;;;;;;24.80;11.57;;;3.80;99.90;;;;;;5077636;28;20063;-77
2022/01/12 08:23:17;;;;;;;125.30;21.30;;;3.70;99.90;;;;;;5094229;28;20036;-77
2022/01/12 08:25:43;;;;;;;99.85;18.85;;;3.90;99.90;;;;;;5094296;28;20418;-75
2022/01/12 08:28:08;;;;;;;124.25;19.70;;;3.80;99.90;;;;;;5097955;28;20106;-80
2022/01/12 08:30:35;;;;;;;91.43;17.88;;;3.70;99.90;;;;;;5101208;28;20040;-74
2022/01/12 08:33:02;;;;;;;104.97;16.58;;;3.60;99.90;;;;;;5094041;28;20128;-76
2022/01/12 08:35:28;;;;;;;169.00;26.13;;;3.50;99.90;;;;;;5093527;28;20393;-74
2022/01/12 08:37:54;;;;;;;151.13;22.63;;;3.40;99.90;;;;;;5094049;28;20048;-74
2022/01/12 08:40:21;;;;;;;93.72;22.10;;;3.40;99.90;;;;;;5094131;28;20468;-74
2022/01/12 08:42:47;;;;;;;144.13;26.90;;;3.50;99.90;;;;;;5093912;28;20391;-74
2022/01/12 08:45:14;;;;;;;127.68;22.58;;;3.60;99.90;;;;;;5093755;28;20055;-74
2022/01/12 08:47:40;;;;;;;97.70;18.35;;;3.70;99.90;;;;;;5093818;28;20087;-73
2022/01/12 08:50:07;;;;;;;106.47;19.45;;;3.70;99.90;;;;;;5093418;28;20079;-74
2022/01/12 08:52:33;;;;;;;123.85;21.20;;;3.60;99.90;;;;;;5093496;28;20083;-74
2022/01/12 08:55:00;;;;;;;150.13;23.23;;;3.50;99.90;;;;;;5094114;28;20052;-74
2022/01/12 08:57:30;;;;;;;125.43;21.77;;;3.50;99.90;;;;;;5094625;28;20052;-74
2022/01/12 09:00:00;;;;;;;53.50;17.55;;;3.60;99.90;;;;;;5077120;28;20059;-74
2022/01/12 09:02:26;;;;;;;144.70;26.38;;;3.70;99.90;;;;;;5094464;28;20059;-74
2022/01/12 09:04:52;;;;;;;121.88;22.92;;;3.80;99.90;;;;;;5076158;28;20044;-74
2022/01/12 09:07:18;;;;;;;104.97;20.15;;;3.80;99.90;;;;;;5093826;28;20044;-75
2022/01/12 09:09:44;;;;;;;26.50;11.40;;;3.80;99.90;;;;;;5094861;28;20044;-82
2022/01/12 09:12:10;;;;;;;117.57;21.23;;;3.80;99.90;;;;;;5077027;28;20083;-78
2022/01/12 09:14:36;;;;;;;137.95;21.88;;;3.90;99.90;;;;;;5094029;28;20101;-77
2022/01/12 09:17:02;;;;;;;106.53;19.23;;;4.00;99.90;;;;;;5093311;28;20040;-77
2022/01/12 09:19:28;;;;;;;78.57;17.00;;;4.00;99.90;;;;;;5076651;28;20058;-77
2022/01/12 09:21:56;;;;;;;95.22;17.38;;;4.00;99.90;;;;;;5093418;28;20392;-77
2022/01/12 09:24:22;;;;;;;137.50;20.45;;;3.90;99.90;;;;;;5093382;28;20044;-77
2022/01/12 09:26:49;;;;;;;129.43;18.65;;;3.90;99.90;;;;;;5076041;28;20433;-77
2022/01/12 09:29:15;;;;;;;133.93;19.60;;;3.90;99.90;;;;;;5093166;28;20048;-77
2022/01/12 09:31:40;;;;;;;223.70;25.08;;;3.90;99.90;;;;;;5093141;28;20048;-77
2022/01/12 09:34:07;;;;;;;98.07;16.92;;;3.90;99.90;;;;;;5075782;28;20428;-77
2022/01/12 09:36:32;;;;;;;118.78;17.83;;;3.90;99.90;;;;;;5093698;28;20097;-78
2022/01/12 09:39:00;;;;;;;99.20;14.55;;;3.90;99.90;;;;;;5092945;28;20127;-76
2022/01/12 09:41:27;;;;;;;173.60;21.90;;;3.90;99.90;;;;;;5076329;28;20044;-76
2022/01/12 09:43:54;;;;;;;175.15;20.73;;;3.90;99.90;;;;;;5076042;28;20086;-78
2022/01/12 09:46:23;;;;;;;105.10;18.33;;;4.00;99.90;;;;;;5092749;28;20048;-74
2022/01/12 09:48:49;;;;;;;123.50;20.65;;;4.30;99.90;;;;;;5073860;28;20048;-80
2022/01/12 09:51:15;;;;;;;83.45;16.65;;;4.50;99.90;;;;;;5072587;28;20097;-79
2022/01/12 09:53:41;;;;;;;132.40;18.83;;;4.60;99.90;;;;;;5061787;28;20040;-78
2022/01/12 09:56:28;;;;;;;93.07;17.60;;;4.80;99.90;;;;;;5092069;28;20054;-79
2022/01/12 09:58:56;;;;;;;49.72;12.65;;;4.90;99.90;;;;;;5092430;28;20036;-78
2022/01/12 10:01:29;;;;;;;113.80;17.60;;;4.90;99.90;;;;;;5092434;28;20047;-79
2022/01/12 10:04:25;;;;;;;115.28;15.77;;;5.10;99.90;;;;;;5092515;28;20483;-79
2022/01/12 10:06:53;;;;;;;40.38;12.52;;;5.00;99.90;;;;;;5059622;28;20495;-78
2022/01/12 10:09:25;;;;;;;106.60;17.13;;;4.90;99.90;;;;;;5072507;28;20056;-77
2022/01/12 10:11:54;;;;;;;146.75;18.88;;;4.90;99.90;;;;;;5085723;28;20052;-78
2022/01/12 10:14:20;;;;;;;76.22;13.93;;;4.80;99.90;;;;;;5092632;28;20135;-77
2022/01/12 10:16:55;;;;;;;155.60;19.73;;;4.80;99.90;;;;;;5059056;28;20040;-77
2022/01/12 10:19:32;;;;;;;84.22;15.23;;;4.80;99.90;;;;;;5092628;28;20044;-76
2022/01/12 10:22:01;;;;;;;129.15;17.08;;;4.70;99.90;;;;;;5092597;28;20473;-78
2022/01/12 10:24:27;;;;;;;138.55;15.52;;;4.80;99.90;;;;;;5092419;28;20143;-78
2022/01/12 10:26:55;;;;;;;188.25;25.20;;;4.90;99.90;;;;;;5075247;28;20055;-79
2022/01/12 10:29:31;;;;;;;113.32;16.60;;;4.90;99.90;;;;;;5091294;28;20066;-79
2022/01/12 10:32:02;;;;;;;167.45;20.38;;;4.90;99.90;;;;;;5092467;28;20047;-77
2022/01/12 10:34:35;;;;;;;204.02;21.70;;;4.90;99.90;;;;;;5073044;28;20048;-85
2022/01/12 10:37:09;;;;;;;188.32;19.80;;;5.00;99.90;;;;;;5089217;28;20039;-82
2022/01/12 10:39:41;;;;;;;173.90;18.95;;;5.00;99.90;;;;;;5086414;28;20071;-76
2022/01/12 10:42:10;;;;;;;222.90;22.83;;;5.10;99.90;;;;;;5106867;28;20036;-76
2022/01/12 10:44:40;;;;;;;121.30;20.02;;;5.20;99.90;;;;;;5075857;28;20398;-77
2022/01/12 10:47:11;;;;;;;137.10;19.92;;;5.30;99.90;;;;;;5073823;28;20130;-81
2022/01/12 10:49:39;;;;;;;185.38;19.77;;;5.40;99.90;;;;;;5053861;28;20052;-78
2022/01/12 10:52:12;;;;;;;223.48;19.60;;;5.40;99.90;;;;;;5071847;28;20056;-75
2022/01/12 10:54:51;;;;;;;237.77;21.85;;;5.40;99.90;;;;;;5072004;28;20108;-81
2022/01/12 10:57:32;;;;;;;177.40;20.92;;;5.40;99.90;;;;;;5072009;28;20053;-82
2022/01/12 11:00:01;;;;;;;105.80;16.33;;;5.40;99.90;;;;;;5072441;28;20080;-81
2022/01/12 11:02:30;;;;;;;177.10;20.00;;;5.40;99.90;;;;;;5072028;28;20052;-81
2022/01/12 11:04:57;;;;;;;159.98;18.80;;;5.50;99.90;;;;;;5073216;28;20044;-81
2022/01/12 11:07:27;;;;;;;113.53;16.58;;;5.60;99.90;;;;;;5075882;28;20181;-81
2022/01/12 11:09:56;;;;;;;96.55;16.45;;;5.50;99.90;;;;;;5109592;28;20053;-80
2022/01/12 11:12:22;;;;;;;125.68;19.17;;;5.60;99.90;;;;;;5075633;28;20044;-77
2022/01/12 11:14:48;;;;;;;112.63;18.35;;;5.70;99.90;;;;;;5061680;28;20048;-78
2022/01/12 11:17:14;;;;;;;123.47;17.20;;;5.80;99.90;;;;;;5076541;28;20049;-76
2022/01/12 11:19:49;;;;;;;127.10;19.30;;;5.90;99.90;;;;;;5059188;28;20502;-84
2022/01/12 11:22:28;;;;;;;100.57;19.13;;;5.80;99.90;;;;;;5076427;28;20124;-82
2022/01/12 11:24:54;;;;;;;90.18;15.52;;;5.90;99.90;;;;;;5075431;28;20509;-81
2022/01/12 11:27:22;;;;;;;52.50;15.30;;;5.80;99.90;;;;;;5075221;28;20079;-81
2022/01/12 11:29:47;;;;;;;95.88;17.85;;;6.00;99.90;;;;;;5075794;28;20479;-81
2022/01/12 11:32:22;;;;;;;86.30;16.52;;;6.20;99.90;;;;;;5075541;28;20044;-80
2022/01/12 11:34:59;;;;;;;76.28;15.73;;;6.20;99.90;;;;;;5075490;28;20052;-80
2022/01/12 11:37:25;;;;;;;119.32;18.48;;;6.20;99.90;;;;;;5075464;28;20087;-80
2022/01/12 11:39:51;;;;;;;70.43;17.20;;;6.20;99.90;;;;;;5075198;28;20084;-79
2022/01/12 11:42:18;;;;;;;109.22;18.38;;;6.30;99.90;;;;;;5079411;28;20056;-75
2022/01/12 11:44:44;;;;;;;96.38;18.30;;;6.30;99.90;;;;;;5075028;28;20048;-80
2022/01/12 11:47:21;;;;;;;49.20;12.20;;;6.40;99.90;;;;;;5075023;28;20044;-72
2022/01/12 11:49:47;;;;;;;50.28;13.07;;;6.40;99.90;;;;;;5075134;28;20068;-76
2022/01/12 11:52:22;;;;;;;67.20;14.80;;;6.60;99.90;;;;;;5075509;28;20416;-76
2022/01/12 11:54:51;;;;;;;51.75;13.23;;;6.80;99.90;;;;;;5074670;28;20051;-76
2022/01/12 11:57:19;;;;;;;55.95;15.18;;;6.70;99.90;;;;;;5074983;28;20048;-77
2022/01/12 11:59:57;;;;;;;79.85;18.73;;;6.80;99.90;;;;;;5074718;28;20088;-77
2022/01/12 12:02:44;;;;;;;80.65;15.57;;;7.00;99.90;;;;;;5075056;28;20071;-77
2022/01/12 12:05:11;;;;;;;85.18;16.13;;;7.00;99.90;;;;;;5074745;28;20052;-77
2022/01/12 12:07:49;;;;;;;114.95;18.30;;;7.10;99.90;;;;;;5075362;28;20048;-76
2022/01/12 12:10:26;;;;;;;120.10;18.98;;;7.00;99.90;;;;;;5058139;28;20060;-76
2022/01/12 12:12:53;;;;;;;92.15;20.08;;;7.00;99.90;;;;;;5074995;28;20048;-77
2022/01/12 12:15:21;;;;;;;96.72;18.50;;;6.90;99.90;;;;;;5108629;28;20127;-76
2022/01/12 12:17:46;;;;;;;105.07;20.63;;;6.70;99.90;;;;;;5075044;28;20045;-76
2022/01/12 12:20:22;;;;;;;103.47;21.15;;;6.60;99.90;;;;;;5075004;28;20378;-76
2022/01/12 12:22:49;;;;;;;99.63;19.25;;;6.60;99.90;;;;;;5074735;28;20503;-75
2022/01/12 12:25:21;;;;;;;119.03;23.33;;;6.60;99.90;;;;;;5073960;28;20072;-72
2022/01/12 12:27:52;;;;;;;94.30;20.00;;;6.60;99.90;;;;;;5075329;28;20485;-71
2022/01/12 12:30:21;;;;;;;109.90;20.77;;;6.40;99.90;;;;;;5091273;28;20151;-73
2022/01/12 12:32:53;;;;;;;103.13;20.38;;;6.50;99.90;;;;;;5057332;28;20087;-73
2022/01/12 12:35:27;;;;;;;96.07;19.67;;;6.60;99.90;;;;;;5073685;28;20055;-73
2022/01/12 12:37:56;;;;;;;104.90;21.77;;;6.60;99.90;;;;;;5073734;28;20060;-72
2022/01/12 12:40:35;;;;;;;132.93;22.80;;;6.60;99.90;;;;;;5073770;28;20369;-72
2022/01/12 12:43:14;;;;;;;110.22;22.63;;;6.60;99.90;;;;;;5073898;28;20049;-71
2022/01/12 12:45:42;;;;;;;114.63;22.63;;;6.40;99.90;;;;;;5087125;28;20048;-74
2022/01/12 12:48:10;;;;;;;123.40;22.65;;;6.40;99.90;;;;;;5075733;28;20399;-72
2022/01/12 12:50:36;;;;;;;125.50;24.17;;;6.60;99.90;;;;;;5093442;28;20051;-73
2022/01/12 12:53:02;;;;;;;107.55;21.83;;;6.50;99.90;;;;;;5084653;28;20048;-73
2022/01/12 12:55:44;;;;;;;104.38;21.50;;;6.50;99.90;;;;;;5073129;28;20476;-71
2022/01/12 12:58:10;;;;;;;112.13;23.38;;;6.70;99.90;;;;;;5056653;28;20161;-70
2022/01/12 13:00:37;;;;;;;133.15;28.08;;;6.80;99.90;;;;;;5073198;28;20040;-72
2022/01/12 13:03:05;;;;;;;106.43;22.85;;;6.80;99.90;;;;;;5103921;28;20087;-72
2022/01/12 13:05:33;;;;;;;101.15;21.55;;;6.80;99.90;;;;;;5097254;28;20048;-72
2022/01/12 13:07:59;;;;;;;111.93;21.45;;;6.80;99.90;;;;;;5072550;28;20063;-72
2022/01/12 13:10:29;;;;;;;114.25;23.83;;;6.80;99.90;;;;;;5073107;28;20131;-72
2022/01/12 13:12:59;;;;;;;101.60;21.55;;;6.90;99.90;;;;;;5080030;28;20043;-72
2022/01/12 13:15:38;;;;;;;98.18;20.50;;;6.90;99.90;;;;;;5090093;28;20044;-72
2022/01/12 13:18:08;;;;;;;100.07;22.65;;;6.70;99.90;;;;;;5084238;28;20051;-72
2022/01/12 13:23:29;;;;;;;115.30;22.77;;;6.70;99.90;;;;;;5092332;28;20052;-72
2022/01/12 13:26:07;;;;;;;120.78;22.50;;;6.70;99.90;;;;;;5092114;28;20048;-72
2022/01/12 13:28:37;;;;;;;108.97;24.50;;;6.80;99.90;;;;;;5075578;28;20056;-72
2022/01/12 13:31:06;;;;;;;100.60;22.17;;;6.80;99.90;;;;;;5093014;28;20071;-72
2022/01/12 13:33:43;;;;;;;99.70;22.83;;;6.80;99.90;;;;;;5092641;28;20121;-72
2022/01/12 13:36:15;;;;;;;89.68;21.33;;;7.00;99.90;;;;;;5086325;28;20123;-71
2022/01/12 13:38:42;;;;;;;98.07;20.65;;;7.00;99.90;;;;;;5072740;28;20094;-75
2022/01/12 13:41:10;;;;;;;98.90;22.08;;;6.90;99.90;;;;;;5052085;28;20095;-75
2022/01/12 13:43:38;;;;;;;48.80;16.35;;;6.80;99.90;;;;;;5074318;28;20069;-73
2022/01/12 13:46:15;;;;;;;41.35;15.75;;;6.90;99.90;;;;;;5092353;28;20040;-72
2022/01/12 13:49:02;;;;;;;;;;;7.00;99.90;;;;;;5092778;28;20082;-72
2022/01/12 13:51:29;;;;;;;49.53;17.02;;;7.10;99.90;;;;;;5073555;28;19920;-73